createdAt,value
2023-06-17T00:01:01.666Z,4.38
2023-06-17T00:04:04.278Z,4.95
2023-06-17T00:07:06.581Z,4.18
2023-06-17T00:10:09.704Z,4.35
2023-06-17T00:13:11.505Z,3.47
2023-06-17T00:16:14.016Z,4.32
2023-06-17T00:22:20.215Z,3.90
2023-06-17T00:25:22.332Z,4.33
2023-06-17T00:28:24.142Z,4.70
2023-06-17T00:31:27.547Z,4.60
2023-06-17T00:34:29.557Z,4.30
2023-06-17T00:37:32.973Z,3.88
2023-06-17T00:43:36.632Z,5.22
2023-06-17T00:46:41.065Z,3.60
2023-06-17T00:49:45.739Z,4.53
2023-06-17T00:52:53.312Z,3.95
2023-06-17T00:55:55.375Z,4.93
2023-06-17T00:58:58.819Z,5.55
2023-06-17T01:02:00.771Z,3.83
2023-06-17T01:05:03.040Z,3.90
2023-06-17T01:08:35.108Z,4.75
2023-06-17T01:11:40.019Z,4.82
2023-06-17T01:14:43.535Z,4.43
2023-06-17T01:17:47.653Z,5.55
2023-06-17T01:20:55.638Z,4.63
2023-06-17T01:24:03.510Z,4.50
2023-06-17T01:27:05.514Z,4.13
2023-06-17T01:30:09.305Z,5.57
2023-06-17T01:33:14.228Z,4.55
2023-06-17T01:36:23.645Z,4.15
2023-06-17T01:39:27.031Z,4.63
2023-06-17T01:42:32.836Z,6.18
2023-06-17T01:45:35.743Z,4.70
2023-06-17T01:48:39.864Z,4.20
2023-06-17T01:51:41.920Z,4.38
2023-06-17T01:54:43.847Z,4.88
2023-06-17T01:57:45.804Z,4.20
2023-06-17T02:00:47.726Z,4.57
2023-06-17T02:03:49.762Z,5.85
2023-06-17T02:06:52.962Z,5.97
2023-06-17T02:09:56.142Z,4.43
2023-06-17T02:12:58.054Z,6.32
2023-06-17T02:15:59.962Z,4.68
2023-06-17T02:19:03.527Z,4.72
2023-06-17T02:22:05.712Z,4.18
2023-06-17T02:25:08.079Z,4.57
2023-06-17T02:28:11.603Z,5.07
2023-06-17T02:31:13.523Z,5.10
2023-06-17T02:34:15.571Z,4.78
2023-06-17T02:37:17.763Z,4.55
2023-06-17T02:40:21.428Z,4.60
2023-06-17T02:43:26.302Z,4.13
2023-06-17T02:46:28.567Z,4.90
2023-06-17T02:49:31.248Z,4.63
2023-06-17T02:52:35.538Z,4.30
2023-06-17T02:55:37.826Z,5.82
2023-06-17T02:58:48.884Z,4.30
2023-06-17T03:01:51.058Z,5.28
2023-06-17T03:04:55.191Z,4.15
2023-06-17T03:07:58.913Z,4.25
2023-06-17T03:11:01.322Z,5.32
2023-06-17T03:14:04.977Z,4.13
2023-06-17T03:17:11.877Z,4.80
2023-06-17T03:20:14.595Z,4.85
2023-06-17T03:23:16.896Z,4.13
2023-06-17T03:29:26.506Z,5.40
2023-06-17T03:32:28.610Z,4.55
2023-06-17T03:35:30.641Z,5.43
2023-06-17T03:38:32.864Z,4.45
2023-06-17T03:41:34.996Z,4.90
2023-06-17T03:44:37.614Z,4.55
2023-06-17T03:47:39.645Z,4.40
2023-06-17T03:50:41.638Z,4.57
2023-06-17T03:53:43.661Z,5.43
2023-06-17T03:56:46.077Z,4.93
2023-06-17T03:59:48.064Z,3.97
2023-06-17T04:02:51.227Z,4.18
2023-06-17T04:06:03.079Z,4.68
2023-06-17T04:09:06.465Z,4.43
2023-06-17T04:12:10.061Z,4.82
2023-06-17T04:15:11.896Z,3.60
2023-06-17T04:18:14.505Z,5.47
2023-06-17T04:21:16.686Z,5.00
2023-06-17T04:27:21.620Z,6.60
2023-06-17T04:30:26.432Z,6.68
2023-06-17T04:33:31.942Z,5.78
2023-06-17T04:36:35.780Z,4.93
2023-06-17T04:39:38.148Z,4.88
2023-06-17T04:42:46.211Z,5.57
2023-06-17T04:45:48.563Z,4.72
2023-06-17T04:48:51.698Z,5.07
2023-06-17T04:51:53.849Z,4.57
2023-06-17T04:54:56.656Z,5.07
2023-06-17T04:57:58.822Z,6.28
2023-06-17T05:01:27.084Z,5.38
2023-06-17T05:07:31.360Z,5.47
2023-06-17T05:10:33.221Z,5.07
2023-06-17T05:13:35.403Z,6.28
2023-06-17T05:16:38.980Z,5.30
2023-06-17T05:22:42.865Z,5.77
2023-06-17T05:28:46.845Z,7.40
2023-06-17T05:31:48.836Z,5.85
2023-06-17T05:34:51.864Z,5.07
2023-06-17T05:37:53.748Z,5.50
2023-06-17T05:40:55.680Z,4.32
2023-06-17T05:43:58.500Z,5.30
2023-06-17T05:47:00.866Z,4.57
2023-06-17T05:50:02.872Z,5.18
2023-06-17T05:53:05.477Z,4.82
2023-06-17T05:56:11.117Z,4.95
2023-06-17T05:59:13.208Z,4.75
2023-06-17T06:02:17.268Z,5.03
2023-06-17T06:05:19.494Z,5.32
2023-06-17T06:08:21.488Z,5.72
2023-06-17T06:11:23.391Z,5.18
2023-06-17T06:14:25.355Z,4.88
2023-06-17T06:17:29.372Z,6.45
2023-06-17T06:20:31.360Z,5.43
2023-06-17T06:26:36.196Z,5.43
2023-06-17T06:29:38.736Z,4.93
2023-06-17T06:35:43.647Z,5.55
2023-06-17T06:38:51.669Z,5.65
2023-06-17T06:41:54.723Z,6.63
2023-06-17T06:45:20.887Z,5.90
2023-06-17T06:51:25.715Z,8.65
2023-06-17T06:54:27.794Z,5.30
2023-06-17T06:57:30.261Z,4.45
2023-06-17T07:03:34.473Z,5.28
2023-06-17T07:06:36.521Z,4.63
2023-06-17T07:09:42.544Z,6.75
2023-06-17T07:15:48.024Z,5.10
2023-06-17T07:18:50.462Z,4.50
2023-06-17T07:21:52.427Z,4.10
2023-06-17T07:24:54.397Z,6.07
2023-06-17T07:28:03.860Z,6.35
2023-06-17T07:31:06.635Z,5.57
2023-06-17T07:34:08.735Z,6.20
2023-06-17T07:37:10.655Z,5.07
2023-06-17T07:40:17.504Z,4.95
2023-06-17T07:43:19.590Z,4.90
2023-06-17T07:46:21.695Z,4.47
2023-06-17T07:49:23.644Z,4.85
2023-06-17T07:52:25.852Z,8.80
2023-06-17T07:55:30.283Z,5.18
2023-06-17T07:58:32.444Z,6.78
2023-06-17T08:01:34.807Z,4.40
2023-06-17T08:04:37.081Z,3.97
2023-06-17T08:07:38.916Z,5.32
2023-06-17T08:13:42.539Z,5.18
2023-06-17T08:16:45.326Z,4.13
2023-06-17T08:19:47.453Z,3.95
2023-06-17T08:22:49.395Z,5.55
2023-06-17T08:25:51.373Z,6.03
2023-06-17T08:28:53.276Z,5.18
2023-06-17T08:31:55.642Z,7.47
2023-06-17T08:34:57.508Z,6.28
2023-06-17T08:37:59.368Z,4.68
2023-06-17T08:41:01.240Z,4.80
2023-06-17T08:44:05.631Z,4.68
2023-06-17T08:47:07.983Z,4.20
2023-06-17T08:50:11.229Z,4.78
2023-06-17T08:53:14.452Z,6.32
2023-06-17T08:56:16.368Z,7.65
2023-06-17T08:59:18.269Z,6.15
2023-06-17T09:02:22.350Z,4.70
2023-06-17T09:05:24.282Z,3.78
2023-06-17T09:08:26.467Z,4.38
2023-06-17T09:11:30.697Z,3.67
2023-06-17T09:14:33.361Z,4.38
2023-06-17T09:17:39.340Z,4.40
2023-06-17T09:20:41.297Z,6.22
2023-06-17T09:23:43.315Z,5.60
2023-06-17T09:26:46.588Z,4.18
2023-06-17T09:29:49.508Z,4.55
2023-06-17T09:32:53.331Z,4.57
2023-06-17T09:36:05.826Z,4.80
2023-06-17T09:39:10.082Z,4.38
2023-06-17T09:42:12.815Z,4.43
2023-06-17T09:45:24.944Z,4.32
2023-06-17T09:48:36.814Z,4.00
2023-06-17T09:51:40.187Z,4.63
2023-06-17T09:54:43.877Z,3.58
2023-06-17T09:57:46.203Z,4.50
2023-06-17T10:00:48.441Z,5.18
2023-06-17T10:03:50.675Z,4.47
2023-06-17T10:06:54.239Z,5.53
2023-06-17T10:09:56.324Z,4.25
2023-06-17T10:13:04.929Z,3.70
2023-06-17T10:16:10.747Z,5.40
2023-06-17T10:19:18.102Z,3.58
2023-06-17T10:22:22.971Z,5.55
2023-06-17T10:25:26.057Z,4.32
2023-06-17T10:28:47.071Z,5.78
2023-06-17T10:31:49.123Z,4.57
2023-06-17T10:35:20.722Z,5.07
2023-06-17T10:38:30.301Z,4.15
2023-06-17T10:41:45.818Z,5.25
2023-06-17T10:44:51.268Z,4.65
2023-06-17T10:48:16.522Z,3.80
2023-06-17T10:51:19.555Z,4.45
2023-06-17T10:54:31.989Z,4.20
2023-06-17T10:57:37.925Z,4.15
2023-06-17T11:00:39.912Z,3.70
2023-06-17T11:03:42.238Z,3.95
2023-06-17T11:06:46.953Z,2.90
2023-06-17T11:09:48.753Z,4.72
2023-06-17T11:12:51.745Z,4.20
2023-06-17T11:15:56.883Z,4.43
2023-06-17T11:19:00.346Z,5.65
2023-06-17T11:22:05.282Z,5.65
2023-06-17T11:25:10.444Z,4.32
2023-06-17T11:28:12.853Z,5.45
2023-06-17T11:31:14.814Z,5.18
2023-06-17T11:34:17.871Z,4.20
2023-06-17T11:37:20.054Z,4.63
2023-06-17T11:40:23.934Z,4.50
2023-06-17T11:43:29.436Z,5.13
2023-06-17T11:46:31.521Z,6.43
2023-06-17T11:49:34.052Z,3.90
2023-06-17T11:52:36.149Z,4.95
2023-06-17T11:55:38.093Z,5.55
2023-06-17T11:58:41.931Z,5.00
2023-06-17T12:01:43.918Z,3.80
2023-06-17T12:04:46.614Z,4.25
2023-06-17T12:07:48.498Z,4.50
2023-06-17T12:10:50.360Z,5.00
2023-06-17T12:13:52.694Z,4.80
2023-06-17T12:16:54.638Z,5.22
2023-06-17T12:20:03.483Z,4.30
2023-06-17T12:23:05.422Z,4.20
2023-06-17T12:26:07.400Z,4.00
2023-06-17T12:29:24.294Z,4.05
2023-06-17T12:32:29.127Z,5.32
2023-06-17T12:35:31.039Z,3.88
2023-06-17T12:38:33.080Z,5.35
2023-06-17T12:41:36.718Z,5.18
2023-06-17T12:44:38.620Z,5.32
2023-06-17T12:47:40.769Z,4.65
2023-06-17T12:50:42.670Z,4.30
2023-06-17T12:53:44.516Z,4.85
2023-06-17T12:56:46.439Z,5.57
2023-06-17T12:59:48.224Z,4.07
2023-06-17T13:02:50.129Z,4.47
2023-06-17T13:05:52.724Z,4.13
2023-06-17T13:08:55.434Z,4.97
2023-06-17T13:11:57.455Z,4.80
2023-06-17T13:14:59.312Z,4.65
2023-06-17T13:18:01.864Z,5.15
2023-06-17T13:21:03.898Z,5.00
2023-06-17T13:24:06.020Z,4.90
2023-06-17T13:27:07.970Z,5.20
2023-06-17T13:30:10.590Z,4.10
2023-06-17T13:33:12.863Z,5.00
2023-06-17T13:36:14.932Z,5.63
2023-06-17T13:39:16.996Z,4.88
2023-06-17T13:42:18.839Z,4.50
2023-06-17T13:45:20.860Z,4.30
2023-06-17T13:48:23.033Z,4.32
2023-06-17T13:51:24.953Z,4.93
2023-06-17T13:54:28.290Z,6.00
2023-06-17T13:57:30.291Z,5.35
2023-06-17T14:00:32.254Z,4.80
2023-06-17T14:03:34.369Z,10.20
2023-06-17T14:06:37.204Z,6.82
2023-06-17T14:09:39.067Z,4.90
2023-06-17T14:12:41.151Z,4.93
2023-06-17T14:15:43.110Z,6.28
2023-06-17T14:18:44.890Z,5.60
2023-06-17T14:21:59.890Z,4.95
2023-06-17T14:25:01.762Z,6.35
2023-06-17T14:28:05.089Z,5.07
2023-06-17T14:31:06.857Z,5.28
2023-06-17T14:34:08.692Z,5.07
2023-06-17T14:37:10.570Z,8.73
2023-06-17T14:40:13.813Z,6.43
2023-06-17T14:43:15.740Z,6.47
2023-06-17T14:46:17.754Z,5.53
2023-06-17T14:49:19.764Z,4.90
2023-06-17T14:52:22.024Z,6.25
2023-06-17T14:55:23.908Z,4.90
2023-06-17T14:58:25.847Z,5.85
2023-06-17T15:01:30.886Z,5.55
2023-06-17T15:04:32.792Z,6.43
2023-06-17T15:07:34.650Z,4.80
2023-06-17T15:10:36.511Z,4.85
2023-06-17T15:13:38.496Z,5.13
2023-06-17T15:16:40.794Z,5.32
2023-06-17T15:19:43.191Z,5.32
2023-06-17T15:22:45.254Z,5.38
2023-06-17T15:25:47.272Z,6.53
2023-06-17T15:28:49.098Z,4.80
2023-06-17T15:31:50.892Z,4.85
2023-06-17T15:34:53.189Z,4.85
2023-06-17T15:37:55.095Z,4.97
2023-06-17T15:40:56.933Z,5.05
2023-06-17T15:44:00.481Z,4.82
2023-06-17T15:47:02.390Z,4.60
2023-06-17T15:50:04.397Z,5.88
2023-06-17T15:53:06.356Z,5.30
2023-06-17T15:56:08.200Z,6.18
2023-06-17T15:59:10.047Z,7.25
2023-06-17T16:02:12.104Z,4.97
2023-06-17T16:05:14.542Z,5.72
2023-06-17T16:08:16.452Z,4.80
2023-06-17T16:11:19.332Z,6.70
2023-06-17T16:14:21.267Z,4.90
2023-06-17T16:17:23.168Z,4.30
2023-06-17T16:20:25.041Z,9.75
2023-06-17T16:23:26.982Z,5.03
2023-06-17T16:26:29.883Z,5.15
2023-06-17T16:29:32.409Z,4.60
2023-06-17T16:32:34.265Z,4.43
2023-06-17T16:35:36.230Z,5.32
2023-06-17T16:38:38.099Z,3.85
2023-06-17T16:41:43.133Z,5.95
2023-06-17T16:44:45.048Z,5.43
2023-06-17T16:47:46.913Z,4.95
2023-06-17T16:50:48.730Z,4.88
2023-06-17T16:56:52.433Z,6.25
2023-06-17T17:02:56.735Z,5.05
2023-06-17T17:05:58.660Z,7.03
2023-06-17T17:12:05.888Z,6.15
2023-06-17T17:15:08.482Z,6.10
2023-06-17T17:18:10.506Z,5.45
2023-06-17T17:21:12.912Z,4.72
2023-06-17T17:24:14.854Z,6.07
2023-06-17T17:27:16.757Z,6.15
2023-06-17T17:33:23.681Z,11.75
2023-06-17T17:36:26.080Z,7.00
2023-06-17T17:39:29.138Z,7.65
2023-06-17T17:42:30.937Z,18.25
2023-06-17T17:45:32.867Z,18.17
2023-06-17T17:51:36.499Z,36.90
2023-06-17T17:54:46.441Z,37.28
2023-06-17T17:57:55.449Z,32.83
2023-06-17T18:04:04.597Z,25.02
2023-06-17T18:10:08.454Z,16.58
2023-06-17T18:13:10.323Z,18.30
2023-06-17T18:16:12.244Z,13.80
2023-06-17T18:19:17.994Z,14.35
2023-06-17T18:22:20.105Z,13.65
2023-06-17T18:25:22.113Z,12.68
2023-06-17T18:28:23.965Z,9.85
2023-06-17T18:31:26.997Z,9.48
2023-06-17T18:34:28.787Z,11.15
2023-06-17T18:37:30.779Z,10.77
2023-06-17T18:40:35.493Z,10.73
2023-06-17T18:43:37.351Z,10.98
2023-06-17T18:46:39.451Z,9.32
2023-06-17T18:52:46.689Z,9.10
2023-06-17T18:55:48.504Z,10.07
2023-06-17T18:58:50.467Z,8.45
2023-06-17T19:01:52.516Z,8.85
2023-06-17T19:04:54.596Z,7.68
2023-06-17T19:07:56.743Z,10.60
2023-06-17T19:14:03.369Z,5.90
2023-06-17T19:17:05.329Z,5.85
2023-06-17T19:20:11.428Z,6.35
2023-06-17T19:23:13.350Z,6.70
2023-06-17T19:26:15.291Z,7.38
2023-06-17T19:29:17.173Z,6.35
2023-06-17T19:32:19.024Z,8.02
2023-06-17T19:35:21.326Z,6.97
2023-06-17T19:41:25.108Z,9.35
2023-06-17T19:44:33.530Z,9.57
2023-06-17T19:47:35.598Z,7.60
2023-06-17T19:50:37.474Z,8.38
2023-06-17T19:53:39.412Z,8.52
2023-06-17T19:56:41.621Z,6.65
2023-06-17T19:59:43.519Z,7.90
2023-06-17T20:02:45.527Z,9.18
2023-06-17T20:05:47.588Z,6.40
2023-06-17T20:08:49.640Z,7.57
2023-06-17T20:11:51.865Z,6.97
2023-06-17T20:14:53.736Z,6.65
2023-06-17T20:17:55.594Z,6.07
2023-06-17T20:20:57.420Z,5.90
2023-06-17T20:23:59.317Z,8.35
2023-06-17T20:27:01.276Z,9.43
2023-06-17T20:30:04.690Z,6.88
2023-06-17T20:33:06.618Z,6.32
2023-06-17T20:36:08.573Z,6.53
2023-06-17T20:39:10.502Z,5.88
2023-06-17T20:42:12.484Z,6.68
2023-06-17T20:45:14.497Z,5.05
2023-06-17T20:48:17.871Z,5.15
2023-06-17T20:51:19.833Z,5.75
2023-06-17T20:54:21.701Z,6.13
2023-06-17T20:57:23.628Z,5.07
2023-06-17T21:00:25.573Z,4.88
2023-06-17T21:03:27.498Z,6.20
2023-06-17T21:06:29.486Z,6.80
2023-06-17T21:09:31.483Z,7.03
2023-06-17T21:12:34.630Z,8.55
2023-06-17T21:15:36.545Z,6.68
2023-06-17T21:18:38.500Z,6.80
2023-06-17T21:21:40.439Z,6.60
2023-06-17T21:24:42.220Z,6.50
2023-06-17T21:27:44.130Z,6.68
2023-06-17T21:30:46.105Z,6.75
2023-06-17T21:33:50.175Z,6.53
2023-06-17T21:36:52.088Z,5.50
2023-06-17T21:39:53.963Z,6.55
2023-06-17T21:42:56.544Z,5.93
2023-06-17T21:45:58.508Z,6.22
2023-06-17T21:49:00.424Z,6.32
2023-06-17T21:52:02.312Z,5.85
2023-06-17T21:55:04.532Z,5.60
2023-06-17T21:58:06.360Z,5.38
2023-06-17T22:01:08.273Z,5.45
2023-06-17T22:04:10.153Z,6.13
2023-06-17T22:07:11.984Z,6.15
2023-06-17T22:10:14.271Z,6.65
2023-06-17T22:13:16.131Z,5.32
2023-06-17T22:16:18.106Z,6.13
2023-06-17T22:19:20.017Z,6.43
2023-06-17T22:22:21.905Z,4.97
2023-06-17T22:25:23.740Z,6.75
2023-06-17T22:28:25.772Z,5.43
2023-06-17T22:31:27.566Z,5.60
2023-06-17T22:34:29.452Z,6.10
2023-06-17T22:37:31.548Z,5.82
2023-06-17T22:40:33.389Z,6.47
2023-06-17T22:43:35.236Z,4.88
2023-06-17T22:46:37.194Z,6.15
2023-06-17T22:49:39.096Z,6.10
2023-06-17T22:52:40.910Z,5.88
2023-06-17T22:55:42.924Z,4.97
2023-06-17T22:58:45.866Z,6.53
2023-06-17T23:01:47.699Z,7.53
2023-06-17T23:04:50.210Z,5.85
2023-06-17T23:10:53.972Z,6.53
2023-06-17T23:13:55.887Z,6.70
2023-06-17T23:16:58.136Z,5.78
2023-06-17T23:20:01.456Z,5.20
2023-06-17T23:23:05.061Z,5.53
2023-06-17T23:26:06.893Z,5.43
2023-06-17T23:29:12.791Z,5.20
2023-06-17T23:32:14.641Z,6.00
2023-06-17T23:35:16.588Z,5.28
2023-06-17T23:38:18.502Z,7.05
2023-06-17T23:41:20.428Z,6.50
2023-06-17T23:44:23.629Z,5.55
2023-06-17T23:47:25.509Z,5.55
2023-06-17T23:50:27.322Z,5.85
2023-06-17T23:53:29.099Z,5.82
2023-06-17T23:56:32.352Z,5.97
2023-06-17T23:59:35.287Z,5.68
